• Join FlightAware (Why Join?)
  • Login
  • US Flag 
01:21AM EST


 

Airport Tracker/Info


-or-


 

Live Flight TrackerFlight Track Log ✈ DAL3682 ✈ 25-Apr-2013 ✈ KCVG - KMSP

Flight Track Log - Related Links

Times and Time Zones

All times are in EDT time to prevent confusion due to time zone crossing. See the DAL3682 flight status page for this flight to view local times or setup timezone preferences in your user account.

Time Position Orientation Groundspeed Altitude Reporting Facility
EDT Latitude Longitude Course Direction KTS MPH feet Rate Location/Type
11:40AM 39.0500 -84.6833 297° West 148 170 1,300  Level Cincinnati TRACON
11:41AM 39.0500 -84.7333 270° West 166 191 3,200 2,040 Climbing Cincinnati TRACON
11:42AM 39.0500 -84.8333 270° West 233 268 6,000 2,460 Climbing Cincinnati TRACON
11:43AM 38.9792 -84.8868 312° West  Level FlightAware Approximate
11:43AM 39.0467 -84.9294 267° West 241 277 9,200  Level Indianapolis Center
11:44AM 39.0413 -84.9786 311° West  Level FlightAware Approximate
11:44AM 39.0686 -85.0172 288° West 259 298 10,700  Level Indianapolis Center
11:45AM 39.0921 -85.0803 297° West  Level FlightAware Approximate
11:45AM 39.1044 -85.1175 295° West 304 350 12,200  Level Indianapolis Center
11:46AM 39.1439 -85.2231 296° West 323 372 14,000 1,800 Climbing Indianapolis Center
11:47AM 39.1825 -85.3269 296° West 321 369 16,000 1,800 Climbing Indianapolis Center
11:48AM 39.2264 -85.4297 299° West 325 374 17,700 1,560 Climbing Indianapolis Center
11:49AM 39.2953 -85.5369 310° West 328 377 19,300 1,320 Climbing Indianapolis Center
11:50AM 39.3542 -85.6297 309° West 333 383 20,500 1,080 Climbing Indianapolis Center
11:51AM 39.4147 -85.7253 309° West 339 390 21,600 1,020 Climbing Indianapolis Center
11:52AM 39.4756 -85.8208 310° West 343 395 22,700 960 Climbing Indianapolis Center
11:53AM 39.5358 -85.9183 309° West 346 398 23,700 840 Climbing Indianapolis Center
11:54AM 39.5964 -86.0153 309° West 345 397 24,500 720 Climbing Indianapolis Center
11:55AM 39.6575 -86.1131 309° West 347 399 25,300 780 Climbing Indianapolis Center
11:56AM 39.7189 -86.2111 309° West 345 397 26,200 780 Climbing Indianapolis Center
11:58AM 39.7769 -86.3047 309° West 337 388 26,900 600 Climbing Indianapolis Center
11:59AM 39.8569 -86.3894 321° Northwest 346 398 27,500 480 Climbing Indianapolis Center
12:00PM 39.9506 -86.4414 337° Northwest 360 414 28,000 240 Climbing Indianapolis Center
12:01PM 40.0603 -86.5025 337° Northwest 366 421 28,000  Level Indianapolis Center
12:02PM 40.1572 -86.5567 337° Northwest 374 430 28,000  Level Indianapolis Center
12:02PM 40.2058 -86.5847 336° Northwest 378 435 28,000  Level Chicago Center
12:03PM 40.3036 -86.6375 338° Northwest 378 435 28,000  Level Chicago Center
12:04PM 40.4000 -86.6919 337° Northwest 375 432 28,000  Level Chicago Center
12:05PM 40.4961 -86.7453 337° Northwest 372 428 28,000  Level Chicago Center
12:06PM 40.6075 -86.8083 337° Northwest 371 427 28,000  Level Chicago Center
12:07PM 40.7028 -86.8608 337° Northwest 370 426 28,000  Level Chicago Center
12:08PM 40.7967 -86.9147 337° Northwest 371 427 28,000  Level Chicago Center
12:09PM 40.8894 -86.9675 337° Northwest 368 423 28,000  Level Chicago Center
12:10PM 40.9839 -87.0200 337° Northwest 370 426 28,000  Level Chicago Center
12:12PM 41.0961 -87.0839 337° Northwest 369 425 28,000  Level Chicago Center
12:13PM 41.1897 -87.1367 337° Northwest 368 423 28,000  Level Chicago Center
12:14PM 41.2811 -87.1914 336° Northwest 365 420 28,000  Level Chicago Center
12:15PM 41.3731 -87.2453 336° Northwest 363 418 28,000  Level Chicago Center
12:16PM 41.4669 -87.3000 336° Northwest 368 423 28,000  Level Chicago Center
12:17PM 41.5800 -87.3656 337° Northwest 371 427 28,000  Level Chicago Center
12:18PM 41.6747 -87.4214 336° Northwest 375 432 28,000  Level Chicago Center
12:19PM 41.7681 -87.4764 336° Northwest 373 429 28,000  Level Chicago Center
12:20PM 41.8633 -87.5317 337° Northwest 377 434 28,000  Level Chicago Center
12:21PM 41.9594 -87.5889 336° Northwest 381 438 28,000  Level Chicago Center
12:22PM 42.0756 -87.6567 337° Northwest 382 440 28,000  Level Chicago Center
12:23PM 42.1728 -87.7144 336° Northwest 385 443 28,000  Level Chicago Center
12:24PM 42.2711 -87.7717 337° Northwest 387 445 28,000  Level Chicago Center
12:25PM 42.3753 -87.8389 335° Northwest 387 445 28,000  Level Chicago Center
12:26PM 42.4556 -87.9389 317° Northwest 387 445 28,000 120 Level Chicago Center
12:27PM 42.5378 -88.0381 318° Northwest 394 453 28,300 420 Climbing Chicago Center
12:28PM 42.6317 -88.1536 318° Northwest 391 450 28,900 480 Climbing Chicago Center
12:29PM 42.7111 -88.2492 319° Northwest 383 441 29,400 480 Climbing Chicago Center
12:30PM 42.7900 -88.3417 319° Northwest 376 433 29,900 240 Climbing Chicago Center
12:31PM 42.8681 -88.4383 318° Northwest 376 433 30,000  Climbing Chicago Center
12:32PM 42.9469 -88.5369 318° Northwest 382 440 30,000  Level Chicago Center
12:33PM 43.0283 -88.6353 319° Northwest 389 448 30,000  Level Chicago Center
12:34PM 43.1231 -88.7533 318° Northwest 393 452 30,000  Level Chicago Center
12:35PM 43.2056 -88.8558 318° Northwest 396 456 30,000  Level Chicago Center
12:36PM 43.2883 -88.9581 318° Northwest 397 457 30,000  Level Chicago Center
12:37PM 43.3714 -89.0622 318° Northwest 400 460 30,000  Level Chicago Center
12:38PM 43.4556 -89.1669 318° Northwest 406 467 30,000  Level Chicago Center
12:39PM 43.5383 -89.2731 317° Northwest 407 468 30,000  Level Chicago Center
12:40PM 43.6358 -89.3961 318° Northwest 405 466 30,000  Level Chicago Center
12:41PM 43.6500 -89.4125 320° Northwest 406 467 30,000  Level Minneapolis Center
12:42PM 43.7331 -89.5192 317° Northwest 407 468 30,000  Level Minneapolis Center
12:43PM 43.8306 -89.6444 317° Northwest 408 470 30,000  Level Minneapolis Center
12:44PM 43.9131 -89.7503 317° Northwest 406 467 30,000  Level Minneapolis Center
12:45PM 43.9964 -89.8561 318° Northwest 405 466 30,000  Level Minneapolis Center
12:46PM 44.0772 -89.9653 316° Northwest 404 465 30,000  Level Minneapolis Center
12:47PM 44.1578 -90.1081 308° West 400 460 30,000  Level Minneapolis Center
12:48PM 44.2367 -90.2514 308° West 398 458 30,000  Level Minneapolis Center
12:49PM 44.3039 -90.3742 307° West 398 458 30,000  Level Minneapolis Center
12:50PM 44.3656 -90.5022 304° West 397 457 30,000  Level Minneapolis Center
12:51PM 44.4181 -90.6372 299° West 396 456 30,000 -360 Level Minneapolis Center
12:52PM 44.4711 -90.7722 299° West 397 457 29,300 -1,200 Descending Minneapolis Center
12:53PM 44.5278 -90.9144 299° West 394 453 27,600 -1,620 Descending Minneapolis Center
12:54PM 44.5783 -91.0444 299° West 386 444 26,000 -1,560 Descending Minneapolis Center
12:55PM 44.6264 -91.1717 298° West 380 437 24,400 -1,740 Descending Minneapolis Center
12:56PM 44.6844 -91.3225 298° West 373 429 22,500 -1,620 Descending Minneapolis Center
12:58PM 44.7325 -91.4464 299° West 369 425 21,100 -1,380 Descending Minneapolis Center
12:59PM 44.7786 -91.5664 298° West 361 415 19,700 -1,380 Descending Minneapolis Center
01:00PM 44.8231 -91.6858 298° West 354 407 18,300 -1,260 Descending Minneapolis Center
01:01PM 44.8683 -91.8019 299° West 347 399 17,100 -1,380 Descending Minneapolis Center
01:01PM 44.9136 -91.8908 306° West 336 387 16,000 -1,560 Descending FAA TRACON SMA TRACON (SMA)
01:02PM 44.9256 -91.9269 295° West 334 384 15,600 -1,560 Descending FAA TRACON SMA TRACON (SMA)
01:02PM 44.9411 -91.9717 296° West 331 381 15,000 -1,740 Descending FAA TRACON SMA TRACON (SMA)
01:02PM 44.9542 -92.0075 297° West 334 384 14,500 -1,320 Descending FAA TRACON SMA TRACON (SMA)
01:03PM 44.9667 -92.0431 296° West 334 384 14,100 -1,500 Descending FAA TRACON SMA TRACON (SMA)
01:03PM 44.9817 -92.0869 296° West 329 379 13,500 -1,680 Descending FAA TRACON SMA TRACON (SMA)
01:03PM 44.9958 -92.1228 299° West 330 380 13,000 -1,380 Descending FAA TRACON SMA TRACON (SMA)
01:04PM 45.0081 -92.1581 296° West 331 381 12,600 -1,500 Descending FAA TRACON SMA TRACON (SMA)
01:04PM 45.0239 -92.2022 297° West 330 380 12,000 -1,680 Descending FAA TRACON SMA TRACON (SMA)
01:04PM 45.0372 -92.2375 298° West 330 380 11,500 -1,380 Descending FAA TRACON SMA TRACON (SMA)
01:05PM 45.0497 -92.2722 297° West 327 376 11,100 -780 Descending FAA TRACON SMA TRACON (SMA)
01:05PM 45.0544 -92.3192 278° West 325 374 11,000 -300 Descending FAA TRACON SMA TRACON (SMA)
01:05PM 45.0506 -92.3572 262° West 320 368 10,900  Descending FAA TRACON SMA TRACON (SMA)
01:06PM 45.0392 -92.3933 246° West 323 372 11,000  Climbing FAA TRACON SMA TRACON (SMA)
01:06PM 45.0200 -92.4347 237° Southwest 329 379 10,900 -780 Descending FAA TRACON SMA TRACON (SMA)
01:06PM 45.0050 -92.4669 237° Southwest 323 372 10,500 -1,080 Descending FAA TRACON SMA TRACON (SMA)
01:07PM 44.9914 -92.4967 237° Southwest 306 352 10,200 -1,080 Descending FAA TRACON SMA TRACON (SMA)
01:07PM 44.9742 -92.5308 235° Southwest 282 325 9,800 -1,200 Descending FAA TRACON SMA TRACON (SMA)
01:07PM 44.9619 -92.5575 237° Southwest 268 308 9,400 -1,380 Descending FAA TRACON SMA TRACON (SMA)
01:08PM 44.9500 -92.5836 237° Southwest 261 300 8,900 -1,680 Descending FAA TRACON SMA TRACON (SMA)
01:08PM 44.9333 -92.6158 234° Southwest 260 299 8,300 -1,560 Descending FAA TRACON SMA TRACON (SMA)
01:08PM 44.9211 -92.6411 236° Southwest 257 296 7,900 -1,380 Descending FAA TRACON SMA TRACON (SMA)
01:09PM 44.9094 -92.6667 237° Southwest 254 292 7,400 -1,320 Descending FAA TRACON SMA TRACON (SMA)
01:09PM 44.8939 -92.6981 235° Southwest 254 292 7,000 -600 Descending FAA TRACON SMA TRACON (SMA)
01:09PM 44.8814 -92.7236 235° Southwest 254 292 7,000 -180 Level FAA TRACON SMA TRACON (SMA)
01:10PM 44.8692 -92.7486 235° Southwest 255 293 6,900 -1,140 Descending FAA TRACON SMA TRACON (SMA)
01:10PM 44.8411 -92.8050 235° Southwest 253 291 5,900 -1,440 Descending FAA TRACON SMA TRACON (SMA)
01:11PM 44.8292 -92.8303 236° Southwest 252 290 5,500 -1,500 Descending FAA TRACON SMA TRACON (SMA)
01:11PM 44.8144 -92.8617 237° Southwest 251 289 4,900 -1,620 Descending FAA TRACON SMA TRACON (SMA)
01:11PM 44.8019 -92.8864 235° Southwest 249 287 4,400 -1,380 Descending FAA TRACON SMA TRACON (SMA)
01:12PM 44.7906 -92.9114 237° Southwest 247 284 4,000 -600 Descending FAA TRACON SMA TRACON (SMA)
01:12PM 44.7878 -92.9442 263° West 229 264 4,000 -180 Level FAA TRACON SMA TRACON (SMA)
01:12PM 44.7875 -92.9689 269° West 210 242 3,900 -180 Descending FAA TRACON SMA TRACON (SMA)
01:13PM 44.7933 -92.9903 291° West 199 229 3,900 120 Level FAA TRACON SMA TRACON (SMA)
01:13PM 44.8014 -93.0111 299° West 194 223 4,000 -480 Climbing FAA TRACON SMA TRACON (SMA)
01:13PM 44.8122 -93.0353 302° West 191 220 3,600 -1,200 Descending FAA TRACON SMA TRACON (SMA)
01:14PM 44.8208 -93.0542 303° West 187 215 3,200 -900 Descending FAA TRACON SMA TRACON (SMA)
01:14PM 44.8286 -93.0717 302° West 176 203 3,000 -660 Descending FAA TRACON SMA TRACON (SMA)